sensor_id;sensor_type;location;lat;lon;timestamp;pressure;altitude;pressure_sealevel;temperature;humidity
9969;BME280;5025;48.890;9.278;2023-02-03T00:01:51;100063.91;;;5.63;81.18
9969;BME280;5025;48.890;9.278;2023-02-03T00:04:16;100062.72;;;5.57;81.78
9969;BME280;5025;48.890;9.278;2023-02-03T00:06:42;100063.75;;;5.56;81.76
9969;BME280;5025;48.890;9.278;2023-02-03T00:09:08;100047.13;;;5.53;81.89
9969;BME280;5025;48.890;9.278;2023-02-03T00:11:33;100060.38;;;5.54;81.95
9969;BME280;5025;48.890;9.278;2023-02-03T00:13:58;100048.31;;;5.50;82.26
9969;BME280;5025;48.890;9.278;2023-02-03T00:16:23;100069.94;;;5.49;82.25
9969;BME280;5025;48.890;9.278;2023-02-03T00:18:49;100060.38;;;5.46;82.55
9969;BME280;5025;48.890;9.278;2023-02-03T00:21:14;100060.03;;;5.49;82.72
9969;BME280;5025;48.890;9.278;2023-02-03T00:23:41;100051.34;;;5.55;82.42
9969;BME280;5025;48.890;9.278;2023-02-03T00:26:11;100053.19;;;5.55;82.54
9969;BME280;5025;48.890;9.278;2023-02-03T00:28:36;100048.31;;;5.50;82.67
9969;BME280;5025;48.890;9.278;2023-02-03T00:31:02;100053.19;;;5.55;82.73
9969;BME280;5025;48.890;9.278;2023-02-03T00:33:27;100059.88;;;5.59;82.33
9969;BME280;5025;48.890;9.278;2023-02-03T00:35:52;100048.34;;;5.59;82.30
9969;BME280;5025;48.890;9.278;2023-02-03T00:38:18;100052.38;;;5.63;81.92
9969;BME280;5025;48.890;9.278;2023-02-03T00:40:51;100068.44;;;5.63;82.01
9969;BME280;5025;48.890;9.278;2023-02-03T00:43:16;100075.78;;;5.52;82.22
9969;BME280;5025;48.890;9.278;2023-02-03T00:45:41;100093.56;;;5.53;82.57
9969;BME280;5025;48.890;9.278;2023-02-03T00:48:07;100083.34;;;5.57;82.52
9969;BME280;5025;48.890;9.278;2023-02-03T00:50:32;100073.44;;;5.49;82.70
9969;BME280;5025;48.890;9.278;2023-02-03T00:52:57;100080.81;;;5.47;82.93
9969;BME280;5025;48.890;9.278;2023-02-03T00:55:23;100084.84;;;5.60;82.72
9969;BME280;5025;48.890;9.278;2023-02-03T00:57:48;100064.59;;;5.65;82.47
9969;BME280;5025;48.890;9.278;2023-02-03T01:00:14;100063.41;;;5.68;81.99
9969;BME280;5025;48.890;9.278;2023-02-03T01:02:39;100072.78;;;5.64;82.14
9969;BME280;5025;48.890;9.278;2023-02-03T01:05:04;100063.09;;;5.63;82.01
9969;BME280;5025;48.890;9.278;2023-02-03T01:07:31;100064.41;;;5.67;82.08
9969;BME280;5025;48.890;9.278;2023-02-03T01:09:57;100073.31;;;5.67;81.90
9969;BME280;5025;48.890;9.278;2023-02-03T01:12:22;100047.34;;;5.68;81.96
9969;BME280;5025;48.890;9.278;2023-02-03T01:14:47;100039.13;;;5.69;82.03
9969;BME280;5025;48.890;9.278;2023-02-03T01:17:12;100019.88;;;5.66;81.92
9969;BME280;5025;48.890;9.278;2023-02-03T01:19:38;100026.06;;;5.58;82.34
9969;BME280;5025;48.890;9.278;2023-02-03T01:22:03;100024.22;;;5.59;82.53
9969;BME280;5025;48.890;9.278;2023-02-03T01:24:29;100026.91;;;5.59;82.55
9969;BME280;5025;48.890;9.278;2023-02-03T01:26:54;100045.97;;;5.55;82.72
9969;BME280;5025;48.890;9.278;2023-02-03T01:29:20;100033.25;;;5.49;83.09
9969;BME280;5025;48.890;9.278;2023-02-03T01:31:45;100037.63;;;5.50;83.49
9969;BME280;5025;48.890;9.278;2023-02-03T01:34:12;100032.59;;;5.55;83.35
9969;BME280;5025;48.890;9.278;2023-02-03T01:36:37;100019.53;;;5.52;83.34
9969;BME280;5025;48.890;9.278;2023-02-03T01:39:04;100016.00;;;5.60;83.15
9969;BME280;5025;48.890;9.278;2023-02-03T01:41:32;100027.06;;;5.65;83.09
9969;BME280;5025;48.890;9.278;2023-02-03T01:43:59;100017.03;;;5.67;82.94
9969;BME280;5025;48.890;9.278;2023-02-03T01:46:36;100026.41;;;5.71;82.61
9969;BME280;5025;48.890;9.278;2023-02-03T01:49:08;100035.63;;;5.69;82.67
9969;BME280;5025;48.890;9.278;2023-02-03T01:51:37;100031.25;;;5.68;82.80
9969;BME280;5025;48.890;9.278;2023-02-03T01:54:04;100039.63;;;5.73;82.75
9969;BME280;5025;48.890;9.278;2023-02-03T01:56:34;100038.63;;;5.74;82.52
9969;BME280;5025;48.890;9.278;2023-02-03T01:59:00;100029.44;;;5.77;82.45
9969;BME280;5025;48.890;9.278;2023-02-03T02:01:28;100025.56;;;5.71;82.61
9969;BME280;5025;48.890;9.278;2023-02-03T02:03:56;100013.84;;;5.72;82.64
9969;BME280;5025;48.890;9.278;2023-02-03T02:06:23;100006.31;;;5.75;82.52
9969;BME280;5025;48.890;9.278;2023-02-03T02:08:51;100006.16;;;5.69;82.87
9969;BME280;5025;48.890;9.278;2023-02-03T02:11:17;100002.28;;;5.63;83.16
9969;BME280;5025;48.890;9.278;2023-02-03T02:13:45;99974.31;;;5.66;83.33
9969;BME280;5025;48.890;9.278;2023-02-03T02:16:36;99959.25;;;5.65;83.48
9969;BME280;5025;48.890;9.278;2023-02-03T02:37:17;99926.72;;;5.76;84.05
9969;BME280;5025;48.890;9.278;2023-02-03T02:40:02;99920.50;;;5.84;83.75
9969;BME280;5025;48.890;9.278;2023-02-03T02:45:48;99968.44;;;5.79;83.52
9969;BME280;5025;48.890;9.278;2023-02-03T02:48:20;99959.06;;;5.74;83.46
9969;BME280;5025;48.890;9.278;2023-02-03T02:50:49;99970.28;;;5.70;83.62
9969;BME280;5025;48.890;9.278;2023-02-03T02:53:20;99977.00;;;5.74;83.55
9969;BME280;5025;48.890;9.278;2023-02-03T02:55:46;99976.50;;;5.70;83.76
9969;BME280;5025;48.890;9.278;2023-02-03T02:58:13;99979.19;;;5.70;83.70
9969;BME280;5025;48.890;9.278;2023-02-03T03:00:41;99966.13;;;5.67;83.80
9969;BME280;5025;48.890;9.278;2023-02-03T03:03:20;99969.97;;;5.65;83.97
9969;BME280;5025;48.890;9.278;2023-02-03T03:06:04;99945.50;;;5.68;84.14
9969;BME280;5025;48.890;9.278;2023-02-03T03:09:05;99932.75;;;5.70;83.76
9969;BME280;5025;48.890;9.278;2023-02-03T03:11:36;99935.28;;;5.71;83.61
9969;BME280;5025;48.890;9.278;2023-02-03T03:14:06;99942.16;;;5.74;83.48
9969;BME280;5025;48.890;9.278;2023-02-03T03:16:36;99952.69;;;5.75;83.30
9969;BME280;5025;48.890;9.278;2023-02-03T03:19:12;99931.56;;;5.81;83.12
9969;BME280;5025;48.890;9.278;2023-02-03T03:21:44;99941.78;;;5.85;82.80
9969;BME280;5025;48.890;9.278;2023-02-03T03:24:17;99935.09;;;5.89;82.74
9969;BME280;5025;48.890;9.278;2023-02-03T03:26:50;99957.88;;;5.93;82.36
9969;BME280;5025;48.890;9.278;2023-02-03T03:29:33;99958.22;;;5.90;82.54
9969;BME280;5025;48.890;9.278;2023-02-03T03:32:01;99963.91;;;5.96;82.26
9969;BME280;5025;48.890;9.278;2023-02-03T03:34:27;99956.72;;;5.88;82.17
9969;BME280;5025;48.890;9.278;2023-02-03T03:37:00;99967.13;;;5.83;82.72
9969;BME280;5025;48.890;9.278;2023-02-03T03:39:41;99968.28;;;5.80;82.89
9969;BME280;5025;48.890;9.278;2023-02-03T03:42:22;99970.97;;;5.80;82.88
9969;BME280;5025;48.890;9.278;2023-02-03T03:44:56;99983.88;;;5.77;83.05
9969;BME280;5025;48.890;9.278;2023-02-03T03:47:28;99989.06;;;5.78;83.12
9969;BME280;5025;48.890;9.278;2023-02-03T03:49:56;100008.47;;;5.80;82.96
9969;BME280;5025;48.890;9.278;2023-02-03T03:52:28;100018.53;;;5.78;83.08
9969;BME280;5025;48.890;9.278;2023-02-03T03:54:56;100002.81;;;5.75;83.25
9969;BME280;5025;48.890;9.278;2023-02-03T03:57:27;100017.53;;;5.79;83.14
9969;BME280;5025;48.890;9.278;2023-02-03T03:59:54;100021.56;;;5.83;82.92
9969;BME280;5025;48.890;9.278;2023-02-03T04:02:21;100023.06;;;5.86;82.95
9969;BME280;5025;48.890;9.278;2023-02-03T04:04:47;100022.91;;;5.87;82.83
9969;BME280;5025;48.890;9.278;2023-02-03T04:07:14;100027.56;;;5.85;82.63
9969;BME280;5025;48.890;9.278;2023-02-03T04:09:40;100027.25;;;5.88;82.72
9969;BME280;5025;48.890;9.278;2023-02-03T04:12:19;100020.88;;;5.89;82.59
9969;BME280;5025;48.890;9.278;2023-02-03T04:14:46;100020.22;;;5.87;82.54
9969;BME280;5025;48.890;9.278;2023-02-03T04:17:11;100025.25;;;5.90;82.51
9969;BME280;5025;48.890;9.278;2023-02-03T04:19:37;100016.19;;;5.91;82.66
9969;BME280;5025;48.890;9.278;2023-02-03T04:22:02;100021.22;;;5.95;82.30
9969;BME280;5025;48.890;9.278;2023-02-03T04:24:27;100020.38;;;5.94;82.81
9969;BME280;5025;48.890;9.278;2023-02-03T04:26:52;100021.06;;;5.88;82.98
9969;BME280;5025;48.890;9.278;2023-02-03T04:29:18;100012.34;;;5.94;82.97
9969;BME280;5025;48.890;9.278;2023-02-03T04:31:43;100009.16;;;5.90;83.10
9969;BME280;5025;48.890;9.278;2023-02-03T04:34:08;99994.41;;;5.95;83.22
9969;BME280;5025;48.890;9.278;2023-02-03T04:36:34;99999.47;;;5.98;83.12
9969;BME280;5025;48.890;9.278;2023-02-03T04:38:59;99998.09;;;5.93;83.25
9969;BME280;5025;48.890;9.278;2023-02-03T04:41:24;99993.75;;;5.92;83.42
9969;BME280;5025;48.890;9.278;2023-02-03T04:43:50;100001.94;;;5.91;83.34
9969;BME280;5025;48.890;9.278;2023-02-03T04:46:15;100009.16;;;5.90;83.64
9969;BME280;5025;48.890;9.278;2023-02-03T04:48:40;100015.03;;;5.86;83.81
9969;BME280;5025;48.890;9.278;2023-02-03T04:51:07;100011.16;;;5.80;84.26
9969;BME280;5025;48.890;9.278;2023-02-03T04:53:33;100004.78;;;5.73;84.45
9969;BME280;5025;48.890;9.278;2023-02-03T04:55:58;99973.66;;;5.72;84.80
9969;BME280;5025;48.890;9.278;2023-02-03T04:58:24;99982.34;;;5.74;84.81
9969;BME280;5025;48.890;9.278;2023-02-03T05:00:51;99995.75;;;5.74;84.40
9969;BME280;5025;48.890;9.278;2023-02-03T05:03:16;99990.38;;;5.74;84.58
9969;BME280;5025;48.890;9.278;2023-02-03T05:05:42;99983.84;;;5.68;84.58
9969;BME280;5025;48.890;9.278;2023-02-03T05:08:07;99990.03;;;5.61;85.03
9969;BME280;5025;48.890;9.278;2023-02-03T05:10:33;99997.25;;;5.60;85.09
9969;BME280;5025;48.890;9.278;2023-02-03T05:12:58;100002.13;;;5.56;85.21
9969;BME280;5025;48.890;9.278;2023-02-03T05:15:23;100004.44;;;5.51;85.65
9969;BME280;5025;48.890;9.278;2023-02-03T05:17:51;100011.66;;;5.51;86.05
9969;BME280;5025;48.890;9.278;2023-02-03T05:20:16;100007.13;;;5.51;86.05
9969;BME280;5025;48.890;9.278;2023-02-03T05:22:42;99996.22;;;5.53;85.98
9969;BME280;5025;48.890;9.278;2023-02-03T05:25:07;100003.94;;;5.48;86.11
9969;BME280;5025;48.890;9.278;2023-02-03T05:27:33;100002.41;;;5.45;86.50
9969;BME280;5025;48.890;9.278;2023-02-03T05:29:58;100002.09;;;5.40;86.96
9969;BME280;5025;48.890;9.278;2023-02-03T05:32:23;100015.47;;;5.32;87.57
9969;BME280;5025;48.890;9.278;2023-02-03T05:34:49;100015.13;;;5.27;88.39
9969;BME280;5025;48.890;9.278;2023-02-03T05:37:15;100023.50;;;5.24;88.94
9969;BME280;5025;48.890;9.278;2023-02-03T05:39:40;100021.00;;;5.22;89.84
9969;BME280;5025;48.890;9.278;2023-02-03T05:42:05;100010.44;;;5.20;89.80
9969;BME280;5025;48.890;9.278;2023-02-03T05:44:30;100023.84;;;5.29;90.01
9969;BME280;5025;48.890;9.278;2023-02-03T05:46:57;100027.34;;;5.29;90.02
9969;BME280;5025;48.890;9.278;2023-02-03T05:49:24;100014.78;;;5.30;89.88
9969;BME280;5025;48.890;9.278;2023-02-03T05:51:53;100006.56;;;5.31;89.89
9969;BME280;5025;48.890;9.278;2023-02-03T05:54:19;99999.25;;;5.33;89.93
9969;BME280;5025;48.890;9.278;2023-02-03T05:56:44;99983.66;;;5.29;89.90
9969;BME280;5025;48.890;9.278;2023-02-03T05:59:09;99987.34;;;5.28;90.01
9969;BME280;5025;48.890;9.278;2023-02-03T06:01:35;99988.69;;;5.24;90.38
9969;BME280;5025;48.890;9.278;2023-02-03T06:04:02;99997.03;;;5.20;90.67
9969;BME280;5025;48.890;9.278;2023-02-03T06:06:28;99993.50;;;5.12;91.80
9969;BME280;5025;48.890;9.278;2023-02-03T06:09:07;99990.16;;;5.18;92.24
9969;BME280;5025;48.890;9.278;2023-02-03T06:11:33;99985.31;;;5.21;92.24
9969;BME280;5025;48.890;9.278;2023-02-03T06:14:00;99984.00;;;5.26;92.20
9969;BME280;5025;48.890;9.278;2023-02-03T06:16:26;99963.56;;;5.25;92.30
9969;BME280;5025;48.890;9.278;2023-02-03T06:18:53;99968.09;;;5.32;92.43
9969;BME280;5025;48.890;9.278;2023-02-03T06:21:19;99984.31;;;5.31;92.43
9969;BME280;5025;48.890;9.278;2023-02-03T06:23:45;99989.69;;;5.39;92.37
9969;BME280;5025;48.890;9.278;2023-02-03T06:26:10;99992.72;;;5.44;92.06
9969;BME280;5025;48.890;9.278;2023-02-03T06:28:36;99985.53;;;5.45;91.99
9969;BME280;5025;48.890;9.278;2023-02-03T06:31:04;99989.56;;;5.49;91.82
9969;BME280;5025;48.890;9.278;2023-02-03T06:33:30;99985.84;;;5.50;91.77
9969;BME280;5025;48.890;9.278;2023-02-03T06:35:56;99990.88;;;5.53;91.63
9969;BME280;5025;48.890;9.278;2023-02-03T06:38:21;99989.03;;;5.45;91.60
9969;BME280;5025;48.890;9.278;2023-02-03T06:40:47;99981.47;;;5.41;91.68
9969;BME280;5025;48.890;9.278;2023-02-03T06:43:12;99974.31;;;5.41;91.87
9969;BME280;5025;48.890;9.278;2023-02-03T06:45:38;99962.91;;;5.39;91.74
9969;BME280;5025;48.890;9.278;2023-02-03T06:48:03;99968.25;;;5.39;91.56
9969;BME280;5025;48.890;9.278;2023-02-03T06:50:28;99955.03;;;5.37;92.19
9969;BME280;5025;48.890;9.278;2023-02-03T06:52:54;99965.25;;;5.34;92.09
9969;BME280;5025;48.890;9.278;2023-02-03T06:55:19;99958.38;;;5.31;92.35
9969;BME280;5025;48.890;9.278;2023-02-03T06:57:46;99950.88;;;5.27;92.77
9969;BME280;5025;48.890;9.278;2023-02-03T07:00:13;99951.53;;;5.29;92.77
9969;BME280;5025;48.890;9.278;2023-02-03T07:02:39;99960.22;;;5.31;92.86
9969;BME280;5025;48.890;9.278;2023-02-03T07:05:05;99950.16;;;5.33;92.52
9969;BME280;5025;48.890;9.278;2023-02-03T07:07:30;99950.16;;;5.33;92.89
9969;BME280;5025;48.890;9.278;2023-02-03T07:09:57;99944.16;;;5.31;92.74
9969;BME280;5025;48.890;9.278;2023-02-03T07:12:22;99954.88;;;5.31;92.99
9969;BME280;5025;48.890;9.278;2023-02-03T07:14:47;99961.56;;;5.27;93.05
9969;BME280;5025;48.890;9.278;2023-02-03T07:17:12;99956.88;;;5.29;92.99
9969;BME280;5025;48.890;9.278;2023-02-03T07:19:38;99962.06;;;5.30;93.16
9969;BME280;5025;48.890;9.278;2023-02-03T07:22:03;99957.53;;;5.31;93.23
9969;BME280;5025;48.890;9.278;2023-02-03T07:24:28;99961.03;;;5.31;93.15
9969;BME280;5025;48.890;9.278;2023-02-03T07:26:53;99959.06;;;5.33;93.30
9969;BME280;5025;48.890;9.278;2023-02-03T07:29:19;99965.09;;;5.35;93.15
9969;BME280;5025;48.890;9.278;2023-02-03T07:31:44;99960.38;;;5.29;93.08
9969;BME280;5025;48.890;9.278;2023-02-03T07:34:09;99959.72;;;5.27;93.18
9969;BME280;5025;48.890;9.278;2023-02-03T07:36:35;99968.91;;;5.33;93.15
9969;BME280;5025;48.890;9.278;2023-02-03T07:39:00;99971.44;;;5.34;93.25
9969;BME280;5025;48.890;9.278;2023-02-03T07:41:25;99988.69;;;5.32;93.14
9969;BME280;5025;48.890;9.278;2023-02-03T07:43:51;99981.16;;;5.27;93.15
9969;BME280;5025;48.890;9.278;2023-02-03T07:46:16;100001.06;;;5.25;93.39
9969;BME280;5025;48.890;9.278;2023-02-03T07:48:41;100002.06;;;5.24;93.53
9969;BME280;5025;48.890;9.278;2023-02-03T07:51:06;100003.91;;;5.23;93.64
9969;BME280;5025;48.890;9.278;2023-02-03T07:53:32;100004.75;;;5.24;93.74
9969;BME280;5025;48.890;9.278;2023-02-03T07:56:04;100021.81;;;5.31;93.79
9969;BME280;5025;48.890;9.278;2023-02-03T07:58:30;100002.09;;;5.32;93.72
9969;BME280;5025;48.890;9.278;2023-02-03T08:00:56;100019.97;;;5.31;93.41
9969;BME280;5025;48.890;9.278;2023-02-03T08:03:22;100022.50;;;5.33;93.62
9969;BME280;5025;48.890;9.278;2023-02-03T08:05:47;100023.84;;;5.37;93.16
9969;BME280;5025;48.890;9.278;2023-02-03T08:08:13;100027.69;;;5.34;93.39
9969;BME280;5025;48.890;9.278;2023-02-03T08:10:38;100034.72;;;5.35;93.30
9969;BME280;5025;48.890;9.278;2023-02-03T08:13:03;100033.41;;;5.39;93.27
9969;BME280;5025;48.890;9.278;2023-02-03T08:15:29;100032.91;;;5.44;93.24
9969;BME280;5025;48.890;9.278;2023-02-03T08:17:54;100016.16;;;5.42;93.25
9969;BME280;5025;48.890;9.278;2023-02-03T08:20:19;100011.31;;;5.46;92.84
9969;BME280;5025;48.890;9.278;2023-02-03T08:22:45;100039.25;;;5.43;92.94
9969;BME280;5025;48.890;9.278;2023-02-03T08:25:11;100038.59;;;5.41;93.07
9969;BME280;5025;48.890;9.278;2023-02-03T08:27:37;100036.25;;;5.38;93.39
9969;BME280;5025;48.890;9.278;2023-02-03T08:30:03;100024.00;;;5.44;93.25
9969;BME280;5025;48.890;9.278;2023-02-03T08:32:29;100009.47;;;5.46;93.24
9969;BME280;5025;48.890;9.278;2023-02-03T08:34:54;100002.09;;;5.40;93.30
9969;BME280;5025;48.890;9.278;2023-02-03T08:37:21;100022.69;;;5.39;93.61
9969;BME280;5025;48.890;9.278;2023-02-03T08:39:51;100028.03;;;5.39;93.91
9969;BME280;5025;48.890;9.278;2023-02-03T08:42:17;100044.59;;;5.27;94.96
9969;BME280;5025;48.890;9.278;2023-02-03T08:44:43;100056.97;;;5.28;95.90
9969;BME280;5025;48.890;9.278;2023-02-03T08:47:09;100052.97;;;5.32;96.85
9969;BME280;5025;48.890;9.278;2023-02-03T08:49:35;100035.91;;;5.41;96.56
9969;BME280;5025;48.890;9.278;2023-02-03T08:52:04;100028.22;;;5.54;95.62
9969;BME280;5025;48.890;9.278;2023-02-03T08:54:29;100025.56;;;5.63;94.74
9969;BME280;5025;48.890;9.278;2023-02-03T08:56:55;100018.69;;;5.68;94.34
9969;BME280;5025;48.890;9.278;2023-02-03T08:59:21;100047.34;;;5.76;93.58
9969;BME280;5025;48.890;9.278;2023-02-03T09:01:47;100036.97;;;5.81;93.48
9969;BME280;5025;48.890;9.278;2023-02-03T09:04:13;100022.22;;;5.85;93.22
9969;BME280;5025;48.890;9.278;2023-02-03T09:06:38;100003.97;;;5.89;93.22
9969;BME280;5025;48.890;9.278;2023-02-03T09:09:04;100018.34;;;5.96;92.53
9969;BME280;5025;48.890;9.278;2023-02-03T09:11:29;100015.22;;;6.01;92.30
9969;BME280;5025;48.890;9.278;2023-02-03T09:13:54;100007.84;;;6.03;91.65
9969;BME280;5025;48.890;9.278;2023-02-03T09:16:22;100016.88;;;6.10;91.17
9969;BME280;5025;48.890;9.278;2023-02-03T09:18:48;100015.88;;;6.11;91.32
9969;BME280;5025;48.890;9.278;2023-02-03T09:21:14;100015.88;;;6.11;91.05
9969;BME280;5025;48.890;9.278;2023-02-03T09:23:44;100016.88;;;6.10;90.81
9969;BME280;5025;48.890;9.278;2023-02-03T09:26:11;100008.81;;;6.10;91.25
9969;BME280;5025;48.890;9.278;2023-02-03T09:28:37;100026.94;;;6.16;91.02
9969;BME280;5025;48.890;9.278;2023-02-03T09:31:05;100024.25;;;6.16;90.74
9969;BME280;5025;48.890;9.278;2023-02-03T09:33:31;100008.66;;;6.20;89.94
9969;BME280;5025;48.890;9.278;2023-02-03T09:35:57;100022.56;;;6.23;89.68
9969;BME280;5025;48.890;9.278;2023-02-03T09:38:23;100019.53;;;6.26;88.86
9969;BME280;5025;48.890;9.278;2023-02-03T09:40:52;100014.00;;;6.28;88.23
9969;BME280;5025;48.890;9.278;2023-02-03T09:43:34;100010.66;;;6.34;87.60
9969;BME280;5025;48.890;9.278;2023-02-03T09:46:26;99996.22;;;6.35;86.76
9969;BME280;5025;48.890;9.278;2023-02-03T09:49:08;100006.97;;;6.35;86.88
9969;BME280;5025;48.890;9.278;2023-02-03T09:54:52;100008.09;;;6.41;87.07
9969;BME280;5025;48.890;9.278;2023-02-03T09:57:24;99996.69;;;6.47;87.10
9969;BME280;5025;48.890;9.278;2023-02-03T09:59:50;99985.59;;;6.50;86.26
9969;BME280;5025;48.890;9.278;2023-02-03T10:02:44;100003.69;;;6.56;86.03
9969;BME280;5025;48.890;9.278;2023-02-03T10:13:05;100000.63;;;6.68;85.11
9969;BME280;5025;48.890;9.278;2023-02-03T10:18:15;100025.81;;;6.67;83.87
9969;BME280;5025;48.890;9.278;2023-02-03T10:20:45;100021.28;;;6.67;83.76
9969;BME280;5025;48.890;9.278;2023-02-03T10:23:15;100030.84;;;6.70;82.86
9969;BME280;5025;48.890;9.278;2023-02-03T10:25:44;100018.09;;;6.72;83.29
9969;BME280;5025;48.890;9.278;2023-02-03T10:28:17;100024.09;;;6.74;83.72
9969;BME280;5025;48.890;9.278;2023-02-03T10:30:47;100044.09;;;6.71;83.41
9969;BME280;5025;48.890;9.278;2023-02-03T10:33:17;100041.94;;;6.67;84.05
9969;BME280;5025;48.890;9.278;2023-02-03T10:35:49;100025.81;;;6.67;84.39
9969;BME280;5025;48.890;9.278;2023-02-03T10:38:23;100011.72;;;6.64;84.54
9969;BME280;5025;48.890;9.278;2023-02-03T10:40:52;100020.13;;;6.70;84.55
9969;BME280;5025;48.890;9.278;2023-02-03T10:43:18;100002.97;;;6.71;84.29
9969;BME280;5025;48.890;9.278;2023-02-03T10:46:02;100004.13;;;6.76;83.28
9969;BME280;5025;48.890;9.278;2023-02-03T10:48:27;99996.38;;;6.81;82.70
9969;BME280;5025;48.890;9.278;2023-02-03T10:50:54;100010.28;;;6.93;82.88
9969;BME280;5025;48.890;9.278;2023-02-03T10:53:31;100002.16;;;7.02;82.09
9969;BME280;5025;48.890;9.278;2023-02-03T10:56:09;99989.78;;;7.00;82.25
9969;BME280;5025;48.890;9.278;2023-02-03T10:58:37;99997.84;;;7.00;81.88
9969;BME280;5025;48.890;9.278;2023-02-03T11:01:11;100007.91;;;6.98;81.98
9969;BME280;5025;48.890;9.278;2023-02-03T11:03:41;99991.78;;;6.98;81.32
9969;BME280;5025;48.890;9.278;2023-02-03T11:06:08;99975.66;;;6.98;81.80
9969;BME280;5025;48.890;9.278;2023-02-03T11:08:36;99985.59;;;6.98;81.61
9969;BME280;5025;48.890;9.278;2023-02-03T11:11:04;99994.81;;;6.95;82.13
9969;BME280;5025;48.890;9.278;2023-02-03T11:13:30;99973.03;;;6.90;81.67
9969;BME280;5025;48.890;9.278;2023-02-03T11:15:59;99946.19;;;6.90;81.33
9969;BME280;5025;48.890;9.278;2023-02-03T11:20:56;99961.75;;;6.95;80.74
9969;BME280;5025;48.890;9.278;2023-02-03T11:23:22;99953.19;;;6.99;80.75
9969;BME280;5025;48.890;9.278;2023-02-03T11:25:48;99954.69;;;7.02;79.94
9969;BME280;5025;48.890;9.278;2023-02-03T11:28:13;99955.03;;;6.99;79.81
9969;BME280;5025;48.890;9.278;2023-02-03T11:30:39;99957.91;;;6.97;79.73
9969;BME280;5025;48.890;9.278;2023-02-03T11:33:17;99966.25;;;7.03;79.77
9969;BME280;5025;48.890;9.278;2023-02-03T11:35:55;99960.06;;;7.02;78.87
9969;BME280;5025;48.890;9.278;2023-02-03T11:38:30;99967.59;;;6.98;78.85
9969;BME280;5025;48.890;9.278;2023-02-03T11:40:59;99958.25;;;6.94;78.31
9969;BME280;5025;48.890;9.278;2023-02-03T11:43:26;99963.63;;;6.94;77.99
9969;BME280;5025;48.890;9.278;2023-02-03T11:45:58;99947.88;;;6.91;78.66
9969;BME280;5025;48.890;9.278;2023-02-03T11:48:30;99938.13;;;6.90;78.51
9969;BME280;5025;48.890;9.278;2023-02-03T11:59:49;99914.06;;;6.97;78.39
9969;BME280;5025;48.890;9.278;2023-02-03T12:08:33;99905.81;;;7.07;78.02
9969;BME280;5025;48.890;9.278;2023-02-03T12:11:16;99922.63;;;7.00;77.39
9969;BME280;5025;48.890;9.278;2023-02-03T12:14:13;99918.63;;;6.96;77.77
9969;BME280;5025;48.890;9.278;2023-02-03T12:19:46;99920.94;;;6.99;78.85
9969;BME280;5025;48.890;9.278;2023-02-03T12:27:52;99926.97;;;7.02;78.01
9969;BME280;5025;48.890;9.278;2023-02-03T12:30:27;99916.59;;;6.98;77.16
9969;BME280;5025;48.890;9.278;2023-02-03T12:33:05;99900.97;;;7.02;77.14
9969;BME280;5025;48.890;9.278;2023-02-03T12:35:51;99910.69;;;7.03;76.72
9969;BME280;5025;48.890;9.278;2023-02-03T12:38:33;99882.72;;;6.97;76.78
9969;BME280;5025;48.890;9.278;2023-02-03T12:41:05;99897.78;;;6.98;77.20
9969;BME280;5025;48.890;9.278;2023-02-03T12:43:44;99877.34;;;6.97;77.57
9969;BME280;5025;48.890;9.278;2023-02-03T12:46:18;99901.00;;;6.94;77.17
9969;BME280;5025;48.890;9.278;2023-02-03T12:51:28;99879.69;;;6.92;75.82
9969;BME280;5025;48.890;9.278;2023-02-03T12:54:00;99877.50;;;6.96;76.09
9969;BME280;5025;48.890;9.278;2023-02-03T12:56:36;99842.97;;;6.93;75.73
9969;BME280;5025;48.890;9.278;2023-02-03T12:59:10;99848.81;;;6.96;75.57
9969;BME280;5025;48.890;9.278;2023-02-03T13:01:55;99857.84;;;6.95;75.75
9969;BME280;5025;48.890;9.278;2023-02-03T13:04:41;99866.28;;;6.92;76.35
9969;BME280;5025;48.890;9.278;2023-02-03T13:10:49;99849.16;;;6.93;76.44
9969;BME280;5025;48.890;9.278;2023-02-03T13:12:51;99836.72;;;6.92;75.98
9969;BME280;5025;48.890;9.278;2023-02-03T13:15:23;99837.41;;;6.94;75.82
9969;BME280;5025;48.890;9.278;2023-02-03T13:20:39;99819.25;;;6.96;75.33
9969;BME280;5025;48.890;9.278;2023-02-03T13:23:07;99808.34;;;6.98;75.51
9969;BME280;5025;48.890;9.278;2023-02-03T13:26:00;99815.22;;;7.00;75.33
9969;BME280;5025;48.890;9.278;2023-02-03T13:34:05;99820.75;;;6.99;74.75
9969;BME280;5025;48.890;9.278;2023-02-03T13:39:53;99802.97;;;6.98;75.75
9969;BME280;5025;48.890;9.278;2023-02-03T13:42:30;99800.47;;;6.96;75.75
9969;BME280;5025;48.890;9.278;2023-02-03T13:45:12;99793.53;;;7.02;75.72
9969;BME280;5025;48.890;9.278;2023-02-03T13:47:45;99793.53;;;7.02;75.75
9969;BME280;5025;48.890;9.278;2023-02-03T13:50:25;99780.13;;;7.02;76.22
9969;BME280;5025;48.890;9.278;2023-02-03T13:52:59;99796.78;;;6.97;76.23
9969;BME280;5025;48.890;9.278;2023-02-03T13:55:38;99785.19;;;6.97;75.96
9969;BME280;5025;48.890;9.278;2023-02-03T13:58:06;99786.84;;;6.98;76.71
9969;BME280;5025;48.890;9.278;2023-02-03T14:05:57;99801.66;;;6.94;77.22
9969;BME280;5025;48.890;9.278;2023-02-03T14:16:40;99802.88;;;6.91;78.03
9969;BME280;5025;48.890;9.278;2023-02-03T14:19:10;99791.09;;;6.92;78.02
9969;BME280;5025;48.890;9.278;2023-02-03T14:24:09;99793.78;;;6.92;77.88
9969;BME280;5025;48.890;9.278;2023-02-03T14:26:42;99800.66;;;6.95;78.02
9969;BME280;5025;48.890;9.278;2023-02-03T14:29:22;99788.91;;;6.96;77.86
9969;BME280;5025;48.890;9.278;2023-02-03T14:31:54;99786.38;;;6.94;78.19
9969;BME280;5025;48.890;9.278;2023-02-03T14:34:30;99798.78;;;6.95;78.69
9969;BME280;5025;48.890;9.278;2023-02-03T14:37:26;99777.31;;;6.95;78.42
9969;BME280;5025;48.890;9.278;2023-02-03T14:40:20;99788.72;;;6.97;77.78
9969;BME280;5025;48.890;9.278;2023-02-03T14:46:22;99798.78;;;6.95;78.11
9969;BME280;5025;48.890;9.278;2023-02-03T14:49:09;99812.22;;;6.95;78.14
9969;BME280;5025;48.890;9.278;2023-02-03T14:57:01;99811.56;;;6.93;78.51
9969;BME280;5025;48.890;9.278;2023-02-03T14:59:47;99798.78;;;6.95;79.00
9969;BME280;5025;48.890;9.278;2023-02-03T15:04:40;99827.69;;;6.93;78.90
9969;BME280;5025;48.890;9.278;2023-02-03T15:07:06;99854.53;;;6.93;78.61
9969;BME280;5025;48.890;9.278;2023-02-03T15:09:37;99829.19;;;6.96;78.53
9969;BME280;5025;48.890;9.278;2023-02-03T15:12:18;99817.75;;;6.94;78.87
9969;BME280;5025;48.890;9.278;2023-02-03T15:14:43;99819.25;;;6.96;79.04
9969;BME280;5025;48.890;9.278;2023-02-03T15:17:27;99810.38;;;6.96;79.09
9969;BME280;5025;48.890;9.278;2023-02-03T15:19:54;99819.91;;;6.98;78.92
9969;BME280;5025;48.890;9.278;2023-02-03T15:22:28;99833.50;;;6.97;78.94
9969;BME280;5025;48.890;9.278;2023-02-03T15:24:59;99839.75;;;6.97;78.67